61-й км

Карта отелей и гостиниц, располагающихся рядом с аэропортом 61-й км :

61-й км
Сентябрьский
Ханты-Мансийский автономный округ - Югра 60° 29' 19.3812" N, 72° 12' 22.5612" E
61-й км
Сентябрьский
Ханты-Мансийский автономный округ - Югра 60° 29' 19.3812" N, 72° 12' 22.5612" E
Код аэродрома ИКАО
HAE2
Код аэродрома RU
ХАЕ2
Координаты
N60.48872° E072.20627°
Превышение над уровнем моря
79
Основная полоса
08/26
Курс магнитный
078,2/258,2
Длина основной ВПП
48
Ширина основной ВПП
48
Покрытие основной ВПП
Твёрдое
Освещение ВПП
Нет
Тип: 
Вертодром
Класс аэродрома: 
Принадлежность: 
ГА
Статус: 
Действующий
Сайт: 
E-mail аэродрома: 
Страна: 
Россия
Регион: 
Ханты-Мансийский автономный округ - Югра
Город: 
Сентябрьский
Дополнительная информация: 
Оператор: нет данных.

Найти трансфер

С помощью этой формы Вы можете найти трансфер из аэропорта 61-й км в город, аэропорт или вокзал:

Карта места

Javascript is required to view this map.

Погода в аэропортах:

Авиационная погода в аэропорту Сокол

Регион: 
Погода METAR: 
UHMM 281200Z 07002MPS 9999 -SHRA OVC024CB 05/03 Q1005 RMK QFE739 R28/10003MPS
Время наблюдения
2021-09-28T12:00:00Z
Температура C
5.0
Точка росы
3.0
Направление ветра
70
Скорость ветра (узлы)
4
Метео видимость
6.21
Явления погоды
-SHRA
Условия полета
MVFR
Аэропорт подробнее: 

Авиационная погода в Трабзоне

Регион: 
Погода METAR: 
LTCG 281150Z 02005KT 340V060 9000 -SHRA BKN028 20/15 Q1018 NOSIG RMK RWY29 34004KT 300V010
Время наблюдения
2021-09-28T11:50:00Z
Температура C
20.0
Точка росы
15.0
Направление ветра
20
Скорость ветра (узлы)
5
Метео видимость
5.59
Явления погоды
-SHRA
Условия полета
MVFR

Авиационная погода в Магнитогорске

Погода METAR: 
USCM 281200Z 03010MPS 4500 -SHRA BR OVC010CB 02/02 Q1016 R36/290055 TEMPO 02015MPS 1200 SHSNRA BR VV004 RMK QFE724
Время наблюдения
2021-09-28T12:00:00Z
Температура C
2.0
Точка росы
2.0
Направление ветра
30
Скорость ветра (узлы)
19
Метео видимость
2.8
Явления погоды
-SHRA BR
Условия полета
IFR
Аэропорт подробнее: 

Авиационная погода в Минеральные Воды

Регион: 
Погода METAR: 
URMM 281200Z 00000MPS 9999 -SHRA BKN023CB 11/09 Q1020 R12/290250 NOSIG RMK QFE737/0982
Время наблюдения
2021-09-28T12:00:00Z
Температура C
11.0
Точка росы
9.0
Направление ветра
0
Скорость ветра (узлы)
0
Метео видимость
6.21
Явления погоды
-SHRA
Условия полета
MVFR
Аэропорт подробнее: